createdAt,value
2019-05-28T00:00:30.743Z,9.58
2019-05-28T00:03:02.683Z,10.13
2019-05-28T00:05:34.718Z,10.70
2019-05-28T00:08:06.665Z,10.75
2019-05-28T00:10:38.743Z,11.10
2019-05-28T00:13:10.539Z,11.30
2019-05-28T00:15:42.767Z,11.50
2019-05-28T00:18:14.586Z,10.03
2019-05-28T00:20:46.593Z,12.07
2019-05-28T00:23:18.426Z,11.50
2019-05-28T00:25:50.525Z,11.45
2019-05-28T00:28:22.469Z,11.43
2019-05-28T00:30:54.577Z,11.53
2019-05-28T00:33:26.301Z,12.00
2019-05-28T00:35:58.398Z,11.03
2019-05-28T00:38:30.392Z,11.48
2019-05-28T00:41:02.407Z,11.88
2019-05-28T00:43:34.331Z,9.28
2019-05-28T00:46:07.581Z,11.40
2019-05-28T00:48:40.616Z,11.12
2019-05-28T00:51:12.619Z,9.13
2019-05-28T00:53:44.936Z,9.53
2019-05-28T00:56:17.876Z,9.60
2019-05-28T00:58:51.440Z,9.95
2019-05-28T01:01:23.448Z,8.60
2019-05-28T01:03:55.302Z,9.03
2019-05-28T01:06:27.141Z,10.28
2019-05-28T01:09:00.096Z,10.55
2019-05-28T01:11:32.115Z,9.58
2019-05-28T01:14:03.898Z,8.48
2019-05-28T01:16:35.777Z,10.25
2019-05-28T01:19:07.555Z,9.73
2019-05-28T01:21:42.311Z,9.75
2019-05-28T01:24:13.329Z,9.55
2019-05-28T01:26:45.423Z,9.65
2019-05-28T01:29:17.241Z,9.50
2019-05-28T01:31:49.261Z,9.30
2019-05-28T01:34:21.015Z,9.58
2019-05-28T01:36:52.915Z,9.15
2019-05-28T01:39:24.908Z,9.20
2019-05-28T01:41:56.906Z,9.85
2019-05-28T01:44:28.672Z,10.15
2019-05-28T01:47:00.735Z,10.72
2019-05-28T01:49:32.485Z,10.45
2019-05-28T01:52:04.664Z,10.05
2019-05-28T01:54:36.489Z,9.68
2019-05-28T01:57:08.352Z,9.60
2019-05-28T01:59:40.117Z,8.95
2019-05-28T02:02:12.210Z,8.88
2019-05-28T02:04:44.037Z,10.00
2019-05-28T02:07:15.900Z,9.43
2019-05-28T02:09:47.982Z,10.05
2019-05-28T02:12:21.048Z,9.28
2019-05-28T02:14:52.811Z,10.05
2019-05-28T02:17:24.548Z,9.78
2019-05-28T02:19:56.278Z,11.30
2019-05-28T02:22:28.244Z,18.00
2019-05-28T02:25:00.241Z,11.25
2019-05-28T02:27:32.261Z,10.32
2019-05-28T02:30:04.176Z,10.75
2019-05-28T02:32:36.295Z,10.32
2019-05-28T02:35:09.378Z,10.08
2019-05-28T02:37:41.448Z,10.75
2019-05-28T02:40:14.060Z,10.25
2019-05-28T02:42:46.048Z,11.25
2019-05-28T02:45:18.840Z,12.25
2019-05-28T02:47:50.831Z,11.35
2019-05-28T02:51:02.193Z,12.35
2019-05-28T02:53:34.841Z,11.78
2019-05-28T02:56:06.954Z,10.93
2019-05-28T02:58:39.562Z,12.65
2019-05-28T03:01:11.470Z,11.75
2019-05-28T03:03:46.232Z,12.23
2019-05-28T03:06:19.941Z,13.38
2019-05-28T03:08:56.268Z,12.73
2019-05-28T03:11:28.189Z,12.20
2019-05-28T03:14:00.044Z,13.05
2019-05-28T03:16:36.435Z,14.30
2019-05-28T03:19:10.458Z,12.05
2019-05-28T03:21:43.011Z,13.65
2019-05-28T03:24:17.640Z,12.90
2019-05-28T03:26:49.728Z,12.75
2019-05-28T03:29:21.679Z,12.15
2019-05-28T03:32:07.325Z,11.85
2019-05-28T03:34:26.986Z,12.30
2019-05-28T03:37:01.025Z,11.75
2019-05-28T03:39:35.439Z,10.72
2019-05-28T03:42:07.478Z,11.55
2019-05-28T03:44:39.284Z,11.97
2019-05-28T03:47:11.080Z,12.10
2019-05-28T03:49:42.916Z,12.05
2019-05-28T03:52:14.711Z,11.55
2019-05-28T03:54:46.815Z,11.73
2019-05-28T03:57:18.994Z,13.35
2019-05-28T03:59:51.042Z,12.85
2019-05-28T04:02:24.217Z,13.13
2019-05-28T04:04:56.314Z,11.78
2019-05-28T04:07:28.113Z,13.05
2019-05-28T04:10:00.018Z,13.50
2019-05-28T04:12:32.833Z,15.15
2019-05-28T04:15:04.673Z,14.28
2019-05-28T04:17:36.543Z,11.68
2019-05-28T04:20:08.461Z,13.22
2019-05-28T04:22:40.285Z,12.50
2019-05-28T04:25:12.906Z,12.03
2019-05-28T04:27:44.787Z,15.48
2019-05-28T04:30:17.587Z,14.13
2019-05-28T04:32:49.375Z,12.53
2019-05-28T04:35:21.422Z,13.28
2019-05-28T04:37:53.244Z,13.28
2019-05-28T04:40:25.305Z,12.78
2019-05-28T04:42:57.135Z,13.70
2019-05-28T04:45:29.157Z,13.38
2019-05-28T04:48:00.935Z,12.47
2019-05-28T04:50:32.882Z,13.38
2019-05-28T04:53:04.762Z,14.50
2019-05-28T04:55:36.859Z,11.83
2019-05-28T04:58:08.970Z,13.00
2019-05-28T05:00:41.050Z,13.25
2019-05-28T05:03:12.922Z,13.08
2019-05-28T05:05:45.074Z,12.40
2019-05-28T05:08:16.883Z,12.55
2019-05-28T05:10:48.904Z,13.38
2019-05-28T05:13:20.755Z,11.60
2019-05-28T05:15:52.613Z,11.97
2019-05-28T05:18:24.425Z,12.73
2019-05-28T05:20:56.307Z,13.18
2019-05-28T05:23:28.136Z,12.07
2019-05-28T05:26:00.287Z,12.98
2019-05-28T05:28:32.324Z,12.07
2019-05-28T05:31:05.657Z,12.82
2019-05-28T05:33:37.426Z,12.45
2019-05-28T05:36:09.330Z,13.25
2019-05-28T05:38:41.179Z,13.72
2019-05-28T05:41:13.281Z,13.15
2019-05-28T05:43:45.399Z,12.63
2019-05-28T05:46:17.723Z,14.07
2019-05-28T05:48:49.497Z,12.73
2019-05-28T05:51:21.548Z,13.28
2019-05-28T05:53:53.323Z,14.68
2019-05-28T05:56:25.468Z,14.38
2019-05-28T05:58:57.608Z,14.10
2019-05-28T06:01:29.636Z,13.85
2019-05-28T06:04:01.436Z,13.13
2019-05-28T06:06:33.429Z,14.50
2019-05-28T06:09:06.449Z,13.70
2019-05-28T06:11:38.492Z,13.75
2019-05-28T06:14:10.501Z,12.28
2019-05-28T06:16:43.539Z,13.48
2019-05-28T06:19:15.328Z,12.90
2019-05-28T06:21:47.331Z,11.45
2019-05-28T06:24:19.080Z,10.93
2019-05-28T06:26:51.008Z,10.88
2019-05-28T06:29:23.103Z,11.00
2019-05-28T06:31:54.926Z,10.70
2019-05-28T06:34:26.710Z,11.38
2019-05-28T06:36:58.738Z,9.80
2019-05-28T06:39:30.585Z,10.23
2019-05-28T06:42:02.455Z,12.45
2019-05-28T06:44:34.679Z,11.57
2019-05-28T06:47:06.812Z,10.60
2019-05-28T06:49:38.622Z,11.08
2019-05-28T06:52:10.718Z,9.45
2019-05-28T06:54:42.510Z,10.88
2019-05-28T06:57:22.735Z,10.10
2019-05-28T06:59:48.188Z,10.30
2019-05-28T07:02:20.014Z,10.20
2019-05-28T07:04:51.768Z,9.83
2019-05-28T07:07:23.608Z,9.88
2019-05-28T07:09:55.400Z,10.03
2019-05-28T07:12:27.290Z,9.98
2019-05-28T07:14:59.408Z,10.08
2019-05-28T07:17:31.330Z,9.85
2019-05-28T07:20:03.107Z,10.15
2019-05-28T07:22:35.028Z,9.40
2019-05-28T07:25:07.508Z,9.00
2019-05-28T07:27:39.576Z,10.60
2019-05-28T07:30:12.286Z,10.20
2019-05-28T07:32:44.228Z,9.55
2019-05-28T07:35:16.029Z,9.48
2019-05-28T07:37:48.080Z,10.00
2019-05-28T07:40:31.263Z,10.70
2019-05-28T07:42:53.580Z,10.60
2019-05-28T07:45:25.595Z,9.68
2019-05-28T07:47:57.461Z,10.40
2019-05-28T07:50:29.238Z,11.15
2019-05-28T07:53:00.997Z,12.68
2019-05-28T07:55:32.850Z,10.70
2019-05-28T07:58:04.731Z,13.05
2019-05-28T08:00:46.215Z,12.58
2019-05-28T08:03:18.176Z,12.28
2019-05-28T08:05:49.954Z,11.90
2019-05-28T08:08:24.690Z,11.63
2019-05-28T08:10:56.579Z,10.43
2019-05-28T08:13:40.327Z,11.25
2019-05-28T08:16:17.572Z,10.80
2019-05-28T08:18:36.538Z,10.35
2019-05-28T08:21:08.443Z,9.65
2019-05-28T08:23:40.438Z,8.45
2019-05-28T08:26:12.307Z,8.95
2019-05-28T08:28:44.136Z,9.75
2019-05-28T08:31:20.694Z,9.15
2019-05-28T08:33:49.866Z,8.78
2019-05-28T08:36:21.639Z,9.43
2019-05-28T08:38:53.782Z,8.95
2019-05-28T08:41:25.544Z,8.98
2019-05-28T08:43:57.518Z,9.58
2019-05-28T08:46:29.619Z,8.98
2019-05-28T08:49:01.622Z,8.33
2019-05-28T08:51:33.377Z,7.85
2019-05-28T08:54:05.783Z,8.33
2019-05-28T08:56:37.529Z,8.25
2019-05-28T08:59:09.595Z,8.25
2019-05-28T09:01:41.652Z,8.63
2019-05-28T09:04:13.616Z,7.35
2019-05-28T09:06:45.935Z,7.97
2019-05-28T09:09:17.831Z,6.47
2019-05-28T09:11:50.001Z,7.67
2019-05-28T09:14:22.050Z,7.87
2019-05-28T09:16:55.261Z,7.87
2019-05-28T09:19:27.143Z,7.87
2019-05-28T09:21:59.265Z,6.80
2019-05-28T09:24:33.892Z,7.33
2019-05-28T09:27:07.042Z,7.25
2019-05-28T09:29:39.458Z,6.87
2019-05-28T09:32:11.683Z,7.47
2019-05-28T09:34:43.967Z,6.55
2019-05-28T09:37:15.888Z,6.87
2019-05-28T09:39:47.826Z,6.28
2019-05-28T09:42:19.738Z,5.78
2019-05-28T09:44:51.633Z,4.78
2019-05-28T09:47:23.622Z,6.12
2019-05-28T09:49:56.390Z,4.92
2019-05-28T09:52:28.282Z,5.85
2019-05-28T09:55:00.296Z,5.60
2019-05-28T09:57:46.438Z,6.42
2019-05-28T10:00:08.820Z,5.58
2019-05-28T10:02:41.729Z,6.40
2019-05-28T10:05:13.961Z,5.70
2019-05-28T10:07:45.726Z,5.62
2019-05-28T10:10:17.786Z,6.20
2019-05-28T10:12:49.660Z,6.10
2019-05-28T10:15:22.050Z,5.25
2019-05-28T10:17:53.928Z,5.67
2019-05-28T10:20:27.181Z,6.08
2019-05-28T10:22:59.060Z,4.75
2019-05-28T10:25:31.221Z,5.75
2019-05-28T10:28:03.085Z,5.45
2019-05-28T10:30:35.018Z,5.80
2019-05-28T10:33:07.056Z,5.30
2019-05-28T10:35:38.916Z,5.58
2019-05-28T10:38:15.265Z,5.45
2019-05-28T10:40:44.521Z,5.40
2019-05-28T10:43:16.401Z,5.28
2019-05-28T10:45:48.427Z,5.15
2019-05-28T10:48:20.401Z,5.45
2019-05-28T10:50:52.390Z,5.10
2019-05-28T10:53:25.149Z,6.08
2019-05-28T10:55:57.144Z,6.47
2019-05-28T10:58:28.967Z,5.20
2019-05-28T11:01:02.074Z,5.55
2019-05-28T11:03:34.101Z,5.62
2019-05-28T11:06:06.206Z,5.00
2019-05-28T11:08:38.027Z,4.75
2019-05-28T11:11:10.051Z,5.37
2019-05-28T11:13:52.701Z,5.40
2019-05-28T11:16:15.804Z,5.22
2019-05-28T11:18:47.842Z,5.40
2019-05-28T11:21:19.949Z,5.55
2019-05-28T11:23:51.723Z,5.60
2019-05-28T11:26:23.633Z,5.40
2019-05-28T11:28:55.571Z,5.70
2019-05-28T11:31:27.694Z,5.58
2019-05-28T11:33:59.502Z,6.60
2019-05-28T11:36:32.056Z,6.80
2019-05-28T11:39:06.602Z,6.42
2019-05-28T11:41:42.670Z,6.50
2019-05-28T11:44:12.391Z,5.83
2019-05-28T11:46:44.525Z,6.03
2019-05-28T11:49:16.412Z,5.60
2019-05-28T11:51:48.843Z,5.03
2019-05-28T11:54:20.809Z,5.20
2019-05-28T11:56:52.671Z,5.08
2019-05-28T11:59:24.462Z,5.90
2019-05-28T12:01:56.805Z,10.82
2019-05-28T12:04:29.018Z,5.97
2019-05-28T12:07:00.851Z,3.90
2019-05-28T12:09:33.559Z,4.37
2019-05-28T12:12:05.722Z,3.72
2019-05-28T12:14:37.663Z,3.87
2019-05-28T12:17:09.700Z,5.80
2019-05-28T12:19:41.882Z,4.80
2019-05-28T12:22:14.037Z,4.45
2019-05-28T12:24:45.865Z,3.90
2019-05-28T12:27:17.674Z,4.28
2019-05-28T12:29:52.160Z,3.67
2019-05-28T12:32:22.989Z,4.22
2019-05-28T12:34:55.112Z,3.90
2019-05-28T12:37:46.248Z,3.45
2019-05-28T12:40:01.081Z,3.60
2019-05-28T12:42:33.382Z,3.70
2019-05-28T12:45:09.801Z,4.37
2019-05-28T12:47:39.742Z,4.00
2019-05-28T12:50:19.828Z,4.33
2019-05-28T12:52:47.844Z,4.22
2019-05-28T12:55:21.388Z,4.30
2019-05-28T12:57:53.929Z,5.08
2019-05-28T13:00:27.862Z,5.20
2019-05-28T13:03:00.551Z,5.10
2019-05-28T13:05:33.913Z,5.45
2019-05-28T13:08:09.906Z,5.45
2019-05-28T13:10:39.792Z,5.62
2019-05-28T13:13:11.814Z,5.75
2019-05-28T13:15:43.705Z,5.53
2019-05-28T13:18:15.647Z,5.55
2019-05-28T13:20:48.414Z,5.70
2019-05-28T13:23:20.928Z,5.90
2019-05-28T13:25:52.689Z,5.58
2019-05-28T13:28:24.592Z,5.85
2019-05-28T13:30:56.393Z,5.45
2019-05-28T13:33:28.329Z,5.50
2019-05-28T13:36:01.828Z,5.90
2019-05-28T13:38:33.941Z,6.08
2019-05-28T13:41:05.834Z,6.50
2019-05-28T13:43:37.878Z,6.78
2019-05-28T13:46:09.745Z,7.25
2019-05-28T13:48:41.648Z,6.55
2019-05-28T13:51:13.863Z,6.20
2019-05-28T13:53:45.904Z,6.95
2019-05-28T13:56:17.644Z,6.00
2019-05-28T13:58:49.990Z,5.95
2019-05-28T14:01:25.455Z,7.10
2019-05-28T14:03:55.612Z,8.35
2019-05-28T14:06:27.868Z,7.92
2019-05-28T14:09:00.183Z,8.03
2019-05-28T14:11:32.425Z,8.13
2019-05-28T14:14:04.816Z,6.85
2019-05-28T14:16:36.787Z,7.50
2019-05-28T14:19:09.150Z,7.03
2019-05-28T14:21:41.597Z,6.78
2019-05-28T14:24:13.879Z,6.28
2019-05-28T14:26:46.324Z,6.05
2019-05-28T14:29:19.075Z,7.45
2019-05-28T14:31:51.205Z,5.12
2019-05-28T14:34:23.124Z,4.78
2019-05-28T14:36:56.201Z,3.37
2019-05-28T14:39:40.576Z,4.08
2019-05-28T14:42:02.750Z,4.10
2019-05-28T14:44:34.975Z,4.60
2019-05-28T14:47:06.964Z,4.58
2019-05-28T14:49:39.074Z,5.08
2019-05-28T14:52:11.147Z,3.25
2019-05-28T14:54:43.307Z,3.60
2019-05-28T14:57:15.179Z,3.52
2019-05-28T14:59:47.450Z,3.85
2019-05-28T15:02:19.848Z,3.40
2019-05-28T15:04:51.891Z,3.85
2019-05-28T15:07:24.569Z,3.17
2019-05-28T15:09:56.612Z,4.05
2019-05-28T15:12:28.453Z,3.47
2019-05-28T15:15:00.539Z,3.87
2019-05-28T15:17:32.382Z,3.98
2019-05-28T15:20:06.256Z,4.03
2019-05-28T15:22:39.634Z,4.30
2019-05-28T15:25:12.489Z,4.15
2019-05-28T15:27:44.577Z,4.30
2019-05-28T15:30:18.740Z,2.80
2019-05-28T15:32:50.602Z,2.60
2019-05-28T15:35:22.846Z,1.62
2019-05-28T15:37:55.204Z,2.00
2019-05-28T15:40:27.211Z,2.02
2019-05-28T15:43:06.075Z,1.65
2019-05-28T15:45:33.365Z,1.47
2019-05-28T15:48:05.524Z,1.62
2019-05-28T15:50:37.688Z,1.25
2019-05-28T15:53:09.906Z,1.25
2019-05-28T15:55:42.246Z,1.32
2019-05-28T15:58:14.279Z,0.90
2019-05-28T16:00:46.695Z,0.90
2019-05-28T16:03:18.647Z,1.32
2019-05-28T16:05:50.636Z,1.10
2019-05-28T16:08:22.708Z,1.30
2019-05-28T16:10:54.785Z,1.30
2019-05-28T16:13:26.629Z,1.00
2019-05-28T16:15:58.879Z,1.40
2019-05-28T16:18:30.815Z,1.50
2019-05-28T16:21:02.777Z,1.20
2019-05-28T16:23:35.081Z,1.20
2019-05-28T16:26:06.966Z,1.22
2019-05-28T16:28:38.794Z,1.47
2019-05-28T16:31:12.765Z,1.60
2019-05-28T16:33:44.446Z,1.27
2019-05-28T16:36:16.370Z,1.45
2019-05-28T16:38:48.507Z,1.30
2019-05-28T16:41:20.613Z,1.60
2019-05-28T16:43:52.442Z,1.95
2019-05-28T16:46:24.377Z,1.72
2019-05-28T16:48:56.337Z,1.70
2019-05-28T16:51:30.952Z,2.27
2019-05-28T16:54:18.192Z,2.17
2019-05-28T16:56:37.128Z,2.05
2019-05-28T16:59:09.067Z,2.25
2019-05-28T17:01:42.086Z,2.05
2019-05-28T17:04:13.948Z,2.10
2019-05-28T17:06:46.105Z,2.17
2019-05-28T17:09:18.333Z,2.27
2019-05-28T17:11:50.590Z,1.87
2019-05-28T17:14:26.767Z,2.25
2019-05-28T17:16:57.022Z,1.98
2019-05-28T17:19:29.160Z,2.37
2019-05-28T17:22:01.250Z,2.20
2019-05-28T17:24:33.208Z,2.42
2019-05-28T17:27:05.190Z,2.45
2019-05-28T17:29:37.038Z,3.08
2019-05-28T17:32:09.018Z,2.62
2019-05-28T17:34:41.022Z,2.80
2019-05-28T17:37:12.951Z,3.17
2019-05-28T17:39:44.876Z,3.00
2019-05-28T17:42:16.874Z,2.52
2019-05-28T17:44:48.707Z,2.62
2019-05-28T17:47:20.990Z,2.85
2019-05-28T17:49:52.938Z,3.67
2019-05-28T17:52:24.955Z,2.80
2019-05-28T17:54:56.928Z,3.40
2019-05-28T17:57:29.063Z,2.90
2019-05-28T18:00:00.961Z,3.10
2019-05-28T18:02:34.838Z,3.40
2019-05-28T18:05:07.747Z,3.77
2019-05-28T18:07:39.744Z,3.30
2019-05-28T18:10:13.577Z,3.33
2019-05-28T18:12:45.973Z,3.10
2019-05-28T18:15:19.579Z,3.00
2019-05-28T18:17:51.449Z,3.50
2019-05-28T18:20:23.611Z,5.92
2019-05-28T18:22:55.766Z,5.08
2019-05-28T18:25:27.613Z,5.20
2019-05-28T18:27:59.741Z,4.83
2019-05-28T18:30:31.538Z,4.55
2019-05-28T18:33:03.561Z,4.45
2019-05-28T18:35:35.556Z,4.83
2019-05-28T18:38:07.965Z,5.15
2019-05-28T18:40:40.118Z,4.87
2019-05-28T18:43:12.116Z,5.03
2019-05-28T18:45:43.981Z,4.90
2019-05-28T18:48:15.937Z,5.22
2019-05-28T18:50:48.689Z,5.05
2019-05-28T18:53:21.058Z,4.90
2019-05-28T18:55:53.332Z,5.97
2019-05-28T18:58:25.737Z,6.72
2019-05-28T19:00:57.784Z,6.20
2019-05-28T19:03:30.069Z,6.45
2019-05-28T19:06:02.003Z,5.62
2019-05-28T19:08:34.102Z,6.75
2019-05-28T19:11:06.335Z,7.22
2019-05-28T19:13:38.391Z,8.05
2019-05-28T19:16:10.327Z,8.15
2019-05-28T19:18:42.840Z,7.85
2019-05-28T19:21:14.675Z,6.75
2019-05-28T19:23:46.897Z,10.20
2019-05-28T19:26:19.581Z,7.80
2019-05-28T19:28:52.096Z,8.13
2019-05-28T19:31:24.326Z,7.50
2019-05-28T19:33:57.251Z,7.62
2019-05-28T19:36:31.538Z,6.90
2019-05-28T19:39:07.595Z,6.62
2019-05-28T19:41:52.496Z,6.85
2019-05-28T19:44:13.709Z,6.90
2019-05-28T19:46:45.793Z,6.65
2019-05-28T19:49:17.794Z,6.85
2019-05-28T19:51:49.663Z,6.78
2019-05-28T19:54:21.736Z,6.85
2019-05-28T19:56:53.706Z,7.28
2019-05-28T19:59:25.616Z,7.15
2019-05-28T20:01:57.470Z,6.97
2019-05-28T20:04:29.579Z,7.08
2019-05-28T20:07:02.121Z,6.95
2019-05-28T20:09:34.122Z,7.17
2019-05-28T20:12:12.740Z,7.08
2019-05-28T20:14:39.682Z,7.00
2019-05-28T20:17:11.515Z,7.20
2019-05-28T20:19:43.593Z,7.03
2019-05-28T20:22:15.412Z,7.20
2019-05-28T20:24:47.833Z,6.83
2019-05-28T20:27:19.930Z,7.25
2019-05-28T20:29:52.065Z,8.15
2019-05-28T20:32:23.925Z,8.18
2019-05-28T20:34:56.302Z,7.90
2019-05-28T20:37:28.280Z,8.78
2019-05-28T20:40:00.309Z,8.83
2019-05-28T20:42:35.673Z,8.28
2019-05-28T20:45:08.955Z,6.75
2019-05-28T20:47:42.020Z,7.62
2019-05-28T20:50:14.401Z,7.40
2019-05-28T20:52:46.193Z,8.90
2019-05-28T20:55:20.440Z,7.90
2019-05-28T20:57:53.361Z,7.90
2019-05-28T21:00:26.032Z,9.73
2019-05-28T21:02:57.935Z,8.83
2019-05-28T21:05:30.232Z,8.30
2019-05-28T21:08:02.028Z,9.18
2019-05-28T21:10:34.151Z,8.10
2019-05-28T21:13:06.832Z,9.08
2019-05-28T21:15:38.859Z,7.67
2019-05-28T21:18:10.803Z,8.18
2019-05-28T21:20:42.672Z,7.87
2019-05-28T21:23:17.688Z,8.38
2019-05-28T21:25:50.043Z,8.48
2019-05-28T21:28:25.760Z,7.60
2019-05-28T21:30:57.185Z,8.85
2019-05-28T21:33:29.039Z,8.63
2019-05-28T21:36:01.438Z,8.63
2019-05-28T21:38:33.297Z,8.18
2019-05-28T21:41:05.324Z,7.90
2019-05-28T21:43:37.103Z,7.42
2019-05-28T21:46:09.129Z,8.98
2019-05-28T21:48:40.940Z,8.65
2019-05-28T21:51:13.254Z,9.08
2019-05-28T21:53:45.406Z,8.10
2019-05-28T21:56:17.565Z,7.50
2019-05-28T21:58:49.609Z,8.58
2019-05-28T22:01:26.240Z,8.75
2019-05-28T22:03:59.389Z,9.13
2019-05-28T22:06:31.674Z,9.35
2019-05-28T22:09:05.123Z,9.23
2019-05-28T22:11:38.642Z,8.93
2019-05-28T22:14:10.889Z,9.58
2019-05-28T22:16:43.001Z,9.53
2019-05-28T22:19:14.852Z,9.85
2019-05-28T22:21:47.013Z,10.28
2019-05-28T22:24:18.877Z,10.75
2019-05-28T22:26:50.704Z,10.78
2019-05-28T22:29:22.940Z,10.75
2019-05-28T22:31:54.856Z,11.97
2019-05-28T22:34:26.616Z,11.45
2019-05-28T22:36:58.709Z,11.38
2019-05-28T22:39:30.613Z,10.53
2019-05-28T22:42:03.702Z,10.03
2019-05-28T22:44:35.758Z,10.55
2019-05-28T22:47:07.921Z,11.28
2019-05-28T22:49:39.968Z,10.88
2019-05-28T22:52:12.150Z,10.53
2019-05-28T22:54:43.964Z,10.80
2019-05-28T22:57:16.172Z,10.30
2019-05-28T22:59:48.418Z,11.18
2019-05-28T23:02:20.727Z,10.88
2019-05-28T23:04:52.539Z,9.68
2019-05-28T23:07:24.789Z,10.38
2019-05-28T23:09:56.647Z,11.30
2019-05-28T23:12:28.788Z,11.00
2019-05-28T23:15:02.072Z,10.93
2019-05-28T23:17:34.124Z,10.82
2019-05-28T23:20:06.770Z,9.98
2019-05-28T23:22:38.733Z,10.98
2019-05-28T23:25:11.779Z,11.03
2019-05-28T23:27:44.189Z,10.20
2019-05-28T23:30:24.588Z,11.30
2019-05-28T23:32:49.861Z,10.90
2019-05-28T23:35:21.637Z,9.73
2019-05-28T23:37:53.493Z,9.55
2019-05-28T23:40:25.291Z,9.78
2019-05-28T23:42:57.333Z,11.10
2019-05-28T23:45:29.544Z,10.08
2019-05-28T23:48:01.723Z,10.43
2019-05-28T23:50:33.566Z,9.93
2019-05-28T23:53:05.726Z,9.85
2019-05-28T23:55:37.625Z,10.45
2019-05-28T23:58:09.895Z,9.93
